sensor_id;sensor_type;location;lat;lon;timestamp;P1;durP1;ratioP1;P2;durP2;ratioP2
51525;SDS011;37611;51.794;21.590;2024-03-08T00:02:08;109.30;;;63.90;;
51525;SDS011;37611;51.794;21.590;2024-03-08T00:06:10;109.10;;;62.90;;
51525;SDS011;37611;51.794;21.590;2024-03-08T00:10:12;107.50;;;64.80;;
51525;SDS011;37611;51.794;21.590;2024-03-08T00:14:14;245.90;;;136.80;;
51525;SDS011;37611;51.794;21.590;2024-03-08T00:18:16;235.60;;;138.80;;
51525;SDS011;37611;51.794;21.590;2024-03-08T00:22:18;222.50;;;130.50;;
51525;SDS011;37611;51.794;21.590;2024-03-08T00:26:20;202.90;;;123.80;;
51525;SDS011;37611;51.794;21.590;2024-03-08T00:30:23;208.40;;;120.10;;
51525;SDS011;37611;51.794;21.590;2024-03-08T00:34:26;217.70;;;120.10;;
51525;SDS011;37611;51.794;21.590;2024-03-08T00:38:28;180.60;;;105.00;;
51525;SDS011;37611;51.794;21.590;2024-03-08T00:42:30;141.90;;;85.70;;
51525;SDS011;37611;51.794;21.590;2024-03-08T00:46:32;146.40;;;88.30;;
51525;SDS011;37611;51.794;21.590;2024-03-08T00:50:35;131.00;;;80.50;;
51525;SDS011;37611;51.794;21.590;2024-03-08T00:54:37;123.30;;;75.80;;
51525;SDS011;37611;51.794;21.590;2024-03-08T00:58:39;127.50;;;71.70;;
51525;SDS011;37611;51.794;21.590;2024-03-08T01:02:41;136.10;;;76.20;;
51525;SDS011;37611;51.794;21.590;2024-03-08T01:06:43;118.40;;;68.20;;
51525;SDS011;37611;51.794;21.590;2024-03-08T01:10:48;108.50;;;66.20;;
51525;SDS011;37611;51.794;21.590;2024-03-08T01:14:52;143.50;;;75.90;;
51525;SDS011;37611;51.794;21.590;2024-03-08T01:18:54;113.50;;;67.20;;
51525;SDS011;37611;51.794;21.590;2024-03-08T01:22:55;123.00;;;68.50;;
51525;SDS011;37611;51.794;21.590;2024-03-08T01:26:57;139.40;;;74.30;;
51525;SDS011;37611;51.794;21.590;2024-03-08T01:30:59;146.80;;;78.40;;
51525;SDS011;37611;51.794;21.590;2024-03-08T01:35:01;146.40;;;81.20;;
51525;SDS011;37611;51.794;21.590;2024-03-08T01:39:04;139.80;;;78.10;;
51525;SDS011;37611;51.794;21.590;2024-03-08T01:43:17;148.60;;;78.40;;
51525;SDS011;37611;51.794;21.590;2024-03-08T01:47:20;134.40;;;74.50;;
51525;SDS011;37611;51.794;21.590;2024-03-08T01:51:26;137.50;;;80.40;;
51525;SDS011;37611;51.794;21.590;2024-03-08T01:55:29;121.80;;;71.10;;
51525;SDS011;37611;51.794;21.590;2024-03-08T01:59:32;105.80;;;67.40;;
51525;SDS011;37611;51.794;21.590;2024-03-08T02:03:34;105.20;;;65.20;;
51525;SDS011;37611;51.794;21.590;2024-03-08T02:07:36;111.40;;;67.70;;
51525;SDS011;37611;51.794;21.590;2024-03-08T02:11:37;116.10;;;66.60;;
51525;SDS011;37611;51.794;21.590;2024-03-08T02:15:55;116.30;;;65.30;;
51525;SDS011;37611;51.794;21.590;2024-03-08T02:19:58;112.10;;;65.40;;
51525;SDS011;37611;51.794;21.590;2024-03-08T02:24:02;113.80;;;66.60;;
51525;SDS011;37611;51.794;21.590;2024-03-08T02:28:05;102.10;;;62.20;;
51525;SDS011;37611;51.794;21.590;2024-03-08T02:32:07;95.50;;;60.10;;
51525;SDS011;37611;51.794;21.590;2024-03-08T02:36:09;88.00;;;53.60;;
51525;SDS011;37611;51.794;21.590;2024-03-08T02:40:12;85.60;;;53.30;;
51525;SDS011;37611;51.794;21.590;2024-03-08T02:44:13;84.00;;;53.70;;
51525;SDS011;37611;51.794;21.590;2024-03-08T02:48:16;90.40;;;55.40;;
51525;SDS011;37611;51.794;21.590;2024-03-08T02:52:18;86.20;;;52.30;;
51525;SDS011;37611;51.794;21.590;2024-03-08T02:56:21;89.50;;;53.50;;
51525;SDS011;37611;51.794;21.590;2024-03-08T03:00:23;89.60;;;53.00;;
51525;SDS011;37611;51.794;21.590;2024-03-08T03:04:25;89.20;;;52.20;;
51525;SDS011;37611;51.794;21.590;2024-03-08T03:08:27;84.70;;;52.30;;
51525;SDS011;37611;51.794;21.590;2024-03-08T03:12:30;96.50;;;56.00;;
51525;SDS011;37611;51.794;21.590;2024-03-08T03:16:32;83.60;;;52.80;;
51525;SDS011;37611;51.794;21.590;2024-03-08T03:20:34;84.80;;;52.40;;
51525;SDS011;37611;51.794;21.590;2024-03-08T03:24:41;89.70;;;54.80;;
51525;SDS011;37611;51.794;21.590;2024-03-08T03:28:43;96.20;;;56.30;;
51525;SDS011;37611;51.794;21.590;2024-03-08T03:32:45;99.50;;;54.50;;
51525;SDS011;37611;51.794;21.590;2024-03-08T03:36:48;104.60;;;59.70;;
51525;SDS011;37611;51.794;21.590;2024-03-08T03:40:50;98.50;;;56.00;;
51525;SDS011;37611;51.794;21.590;2024-03-08T03:44:54;90.10;;;53.50;;
51525;SDS011;37611;51.794;21.590;2024-03-08T03:48:56;95.60;;;54.40;;
51525;SDS011;37611;51.794;21.590;2024-03-08T03:52:57;93.10;;;56.20;;
51525;SDS011;37611;51.794;21.590;2024-03-08T03:56:59;95.60;;;56.30;;
51525;SDS011;37611;51.794;21.590;2024-03-08T04:01:04;100.80;;;57.50;;
51525;SDS011;37611;51.794;21.590;2024-03-08T04:05:07;96.40;;;56.40;;
51525;SDS011;37611;51.794;21.590;2024-03-08T04:09:10;95.40;;;53.20;;
51525;SDS011;37611;51.794;21.590;2024-03-08T04:13:14;101.00;;;59.30;;
51525;SDS011;37611;51.794;21.590;2024-03-08T04:17:17;94.10;;;57.70;;
51525;SDS011;37611;51.794;21.590;2024-03-08T04:21:19;98.10;;;56.50;;
51525;SDS011;37611;51.794;21.590;2024-03-08T04:25:21;89.20;;;58.40;;
51525;SDS011;37611;51.794;21.590;2024-03-08T04:29:23;99.80;;;58.40;;
51525;SDS011;37611;51.794;21.590;2024-03-08T04:33:25;91.50;;;56.00;;
51525;SDS011;37611;51.794;21.590;2024-03-08T04:37:27;83.00;;;53.00;;
51525;SDS011;37611;51.794;21.590;2024-03-08T04:41:31;79.40;;;47.40;;
51525;SDS011;37611;51.794;21.590;2024-03-08T04:45:35;86.10;;;48.60;;
51525;SDS011;37611;51.794;21.590;2024-03-08T04:49:38;85.00;;;47.40;;
51525;SDS011;37611;51.794;21.590;2024-03-08T04:53:39;77.90;;;46.90;;
51525;SDS011;37611;51.794;21.590;2024-03-08T04:57:41;77.80;;;46.50;;
51525;SDS011;37611;51.794;21.590;2024-03-08T05:01:45;73.20;;;44.30;;
51525;SDS011;37611;51.794;21.590;2024-03-08T05:05:47;75.60;;;44.70;;
51525;SDS011;37611;51.794;21.590;2024-03-08T05:09:49;65.40;;;42.60;;
51525;SDS011;37611;51.794;21.590;2024-03-08T05:13:53;76.30;;;45.00;;
51525;SDS011;37611;51.794;21.590;2024-03-08T05:17:55;78.00;;;43.40;;
51525;SDS011;37611;51.794;21.590;2024-03-08T05:21:59;83.20;;;45.80;;
51525;SDS011;37611;51.794;21.590;2024-03-08T05:26:01;88.20;;;49.70;;
51525;SDS011;37611;51.794;21.590;2024-03-08T05:30:03;78.20;;;48.90;;
51525;SDS011;37611;51.794;21.590;2024-03-08T05:34:08;78.60;;;47.80;;
51525;SDS011;37611;51.794;21.590;2024-03-08T05:38:11;81.60;;;51.10;;
51525;SDS011;37611;51.794;21.590;2024-03-08T05:42:14;87.10;;;51.50;;
51525;SDS011;37611;51.794;21.590;2024-03-08T05:46:16;89.40;;;53.10;;
51525;SDS011;37611;51.794;21.590;2024-03-08T05:50:19;88.20;;;52.80;;
51525;SDS011;37611;51.794;21.590;2024-03-08T05:54:21;100.80;;;58.20;;
51525;SDS011;37611;51.794;21.590;2024-03-08T05:58:25;85.60;;;54.50;;
51525;SDS011;37611;51.794;21.590;2024-03-08T06:02:27;131.70;;;80.50;;
51525;SDS011;37611;51.794;21.590;2024-03-08T06:06:29;187.70;;;107.20;;
51525;SDS011;37611;51.794;21.590;2024-03-08T06:10:31;179.90;;;110.80;;
51525;SDS011;37611;51.794;21.590;2024-03-08T06:14:33;121.10;;;72.50;;
51525;SDS011;37611;51.794;21.590;2024-03-08T06:18:35;105.60;;;63.90;;
51525;SDS011;37611;51.794;21.590;2024-03-08T06:22:43;77.10;;;50.30;;
51525;SDS011;37611;51.794;21.590;2024-03-08T06:26:46;73.40;;;49.90;;
51525;SDS011;37611;51.794;21.590;2024-03-08T06:30:48;79.80;;;56.60;;
51525;SDS011;37611;51.794;21.590;2024-03-08T06:34:52;90.60;;;61.20;;
51525;SDS011;37611;51.794;21.590;2024-03-08T06:38:54;95.70;;;67.30;;
51525;SDS011;37611;51.794;21.590;2024-03-08T06:42:56;107.70;;;77.70;;
51525;SDS011;37611;51.794;21.590;2024-03-08T06:46:58;104.30;;;76.30;;
51525;SDS011;37611;51.794;21.590;2024-03-08T06:51:00;111.50;;;84.10;;
51525;SDS011;37611;51.794;21.590;2024-03-08T06:55:02;121.50;;;87.40;;
51525;SDS011;37611;51.794;21.590;2024-03-08T06:59:06;127.80;;;91.50;;
51525;SDS011;37611;51.794;21.590;2024-03-08T07:03:10;143.40;;;101.30;;
51525;SDS011;37611;51.794;21.590;2024-03-08T07:07:13;139.20;;;97.80;;
51525;SDS011;37611;51.794;21.590;2024-03-08T07:11:16;108.50;;;75.90;;
51525;SDS011;37611;51.794;21.590;2024-03-08T07:15:20;100.00;;;70.60;;
51525;SDS011;37611;51.794;21.590;2024-03-08T07:19:22;87.40;;;63.70;;
51525;SDS011;37611;51.794;21.590;2024-03-08T07:23:25;90.20;;;62.60;;
51525;SDS011;37611;51.794;21.590;2024-03-08T07:27:56;91.70;;;68.70;;
51525;SDS011;37611;51.794;21.590;2024-03-08T07:31:58;105.20;;;77.90;;
51525;SDS011;37611;51.794;21.590;2024-03-08T07:36:29;92.30;;;67.80;;
51525;SDS011;37611;51.794;21.590;2024-03-08T07:40:33;100.80;;;70.80;;
51525;SDS011;37611;51.794;21.590;2024-03-08T07:44:45;63.90;;;50.50;;
51525;SDS011;37611;51.794;21.590;2024-03-08T07:48:50;71.70;;;50.80;;
51525;SDS011;37611;51.794;21.590;2024-03-08T07:52:53;70.20;;;49.50;;
51525;SDS011;37611;51.794;21.590;2024-03-08T07:56:54;68.30;;;47.80;;
51525;SDS011;37611;51.794;21.590;2024-03-08T08:00:56;77.90;;;58.50;;
51525;SDS011;37611;51.794;21.590;2024-03-08T08:04:58;89.00;;;73.40;;
51525;SDS011;37611;51.794;21.590;2024-03-08T08:09:00;95.20;;;73.20;;
51525;SDS011;37611;51.794;21.590;2024-03-08T08:13:02;100.10;;;80.40;;
51525;SDS011;37611;51.794;21.590;2024-03-08T08:17:08;96.70;;;76.60;;
51525;SDS011;37611;51.794;21.590;2024-03-08T08:21:10;78.20;;;63.30;;
51525;SDS011;37611;51.794;21.590;2024-03-08T08:25:12;78.60;;;61.00;;
51525;SDS011;37611;51.794;21.590;2024-03-08T08:29:14;76.80;;;56.30;;
51525;SDS011;37611;51.794;21.590;2024-03-08T08:33:16;71.60;;;55.70;;
51525;SDS011;37611;51.794;21.590;2024-03-08T08:37:18;66.20;;;52.70;;
51525;SDS011;37611;51.794;21.590;2024-03-08T08:41:20;62.40;;;49.30;;
51525;SDS011;37611;51.794;21.590;2024-03-08T08:45:23;68.20;;;50.60;;
51525;SDS011;37611;51.794;21.590;2024-03-08T08:49:25;52.00;;;42.00;;
51525;SDS011;37611;51.794;21.590;2024-03-08T08:53:27;52.70;;;39.00;;
51525;SDS011;37611;51.794;21.590;2024-03-08T08:57:29;41.40;;;33.90;;
51525;SDS011;37611;51.794;21.590;2024-03-08T09:01:32;30.70;;;23.90;;
51525;SDS011;37611;51.794;21.590;2024-03-08T09:05:34;35.10;;;26.80;;
51525;SDS011;37611;51.794;21.590;2024-03-08T09:09:36;27.00;;;22.60;;
51525;SDS011;37611;51.794;21.590;2024-03-08T09:13:38;32.10;;;23.90;;
51525;SDS011;37611;51.794;21.590;2024-03-08T09:17:40;21.00;;;16.20;;
51525;SDS011;37611;51.794;21.590;2024-03-08T09:21:42;21.70;;;17.90;;
51525;SDS011;37611;51.794;21.590;2024-03-08T09:25:44;23.30;;;19.80;;
51525;SDS011;37611;51.794;21.590;2024-03-08T09:29:46;21.40;;;16.50;;
51525;SDS011;37611;51.794;21.590;2024-03-08T09:33:48;27.40;;;22.70;;
51525;SDS011;37611;51.794;21.590;2024-03-08T09:37:50;25.80;;;20.70;;
51525;SDS011;37611;51.794;21.590;2024-03-08T09:41:53;18.60;;;16.50;;
51525;SDS011;37611;51.794;21.590;2024-03-08T09:45:56;27.00;;;19.30;;
51525;SDS011;37611;51.794;21.590;2024-03-08T09:49:59;23.80;;;18.90;;
51525;SDS011;37611;51.794;21.590;2024-03-08T09:54:02;25.00;;;20.50;;
51525;SDS011;37611;51.794;21.590;2024-03-08T09:58:07;22.90;;;18.40;;
51525;SDS011;37611;51.794;21.590;2024-03-08T10:02:30;23.40;;;19.40;;
51525;SDS011;37611;51.794;21.590;2024-03-08T10:06:32;24.00;;;19.70;;
51525;SDS011;37611;51.794;21.590;2024-03-08T10:10:34;13.20;;;11.10;;
51525;SDS011;37611;51.794;21.590;2024-03-08T10:14:38;16.80;;;13.80;;
51525;SDS011;37611;51.794;21.590;2024-03-08T10:18:41;15.10;;;13.00;;
51525;SDS011;37611;51.794;21.590;2024-03-08T10:22:43;17.40;;;13.60;;
51525;SDS011;37611;51.794;21.590;2024-03-08T10:26:45;12.50;;;11.10;;
51525;SDS011;37611;51.794;21.590;2024-03-08T10:30:47;18.30;;;14.00;;
51525;SDS011;37611;51.794;21.590;2024-03-08T10:34:50;16.40;;;13.00;;
51525;SDS011;37611;51.794;21.590;2024-03-08T10:38:52;20.30;;;13.60;;
51525;SDS011;37611;51.794;21.590;2024-03-08T10:51:00;14.70;;;12.20;;
51525;SDS011;37611;51.794;21.590;2024-03-08T10:55:05;16.10;;;13.70;;
51525;SDS011;37611;51.794;21.590;2024-03-08T10:59:13;26.10;;;23.10;;
51525;SDS011;37611;51.794;21.590;2024-03-08T11:07:46;17.50;;;14.20;;
51525;SDS011;37611;51.794;21.590;2024-03-08T11:11:49;15.50;;;13.90;;
51525;SDS011;37611;51.794;21.590;2024-03-08T11:15:51;27.20;;;20.90;;
51525;SDS011;37611;51.794;21.590;2024-03-08T11:19:52;29.30;;;23.20;;
51525;SDS011;37611;51.794;21.590;2024-03-08T11:24:00;21.20;;;17.40;;
51525;SDS011;37611;51.794;21.590;2024-03-08T11:28:13;20.60;;;17.10;;
51525;SDS011;37611;51.794;21.590;2024-03-08T11:32:20;18.30;;;14.60;;
51525;SDS011;37611;51.794;21.590;2024-03-08T11:36:23;18.10;;;15.00;;
51525;SDS011;37611;51.794;21.590;2024-03-08T11:40:26;20.40;;;16.80;;
51525;SDS011;37611;51.794;21.590;2024-03-08T11:44:28;17.10;;;14.40;;
51525;SDS011;37611;51.794;21.590;2024-03-08T11:48:30;22.70;;;17.80;;
51525;SDS011;37611;51.794;21.590;2024-03-08T11:52:34;21.10;;;16.40;;
51525;SDS011;37611;51.794;21.590;2024-03-08T11:56:35;19.20;;;15.00;;
51525;SDS011;37611;51.794;21.590;2024-03-08T12:00:37;19.10;;;16.60;;
51525;SDS011;37611;51.794;21.590;2024-03-08T12:04:40;19.50;;;16.30;;
51525;SDS011;37611;51.794;21.590;2024-03-08T12:08:43;17.80;;;15.20;;
51525;SDS011;37611;51.794;21.590;2024-03-08T12:12:49;19.10;;;16.40;;
51525;SDS011;37611;51.794;21.590;2024-03-08T12:16:52;19.40;;;16.60;;
51525;SDS011;37611;51.794;21.590;2024-03-08T12:21:07;23.70;;;17.20;;
51525;SDS011;37611;51.794;21.590;2024-03-08T12:25:13;18.00;;;14.20;;
51525;SDS011;37611;51.794;21.590;2024-03-08T12:29:16;23.10;;;17.30;;
51525;SDS011;37611;51.794;21.590;2024-03-08T12:33:21;20.00;;;15.10;;
51525;SDS011;37611;51.794;21.590;2024-03-08T12:37:23;19.30;;;16.50;;
51525;SDS011;37611;51.794;21.590;2024-03-08T12:41:25;20.80;;;17.20;;
51525;SDS011;37611;51.794;21.590;2024-03-08T12:45:28;23.70;;;18.90;;
51525;SDS011;37611;51.794;21.590;2024-03-08T12:49:30;22.40;;;15.60;;
51525;SDS011;37611;51.794;21.590;2024-03-08T12:53:32;21.40;;;17.00;;
51525;SDS011;37611;51.794;21.590;2024-03-08T12:57:35;24.10;;;17.10;;
51525;SDS011;37611;51.794;21.590;2024-03-08T13:01:39;21.60;;;16.90;;
51525;SDS011;37611;51.794;21.590;2024-03-08T13:05:41;17.40;;;14.10;;
51525;SDS011;37611;51.794;21.590;2024-03-08T13:09:44;19.30;;;15.10;;
51525;SDS011;37611;51.794;21.590;2024-03-08T13:13:45;19.30;;;15.40;;
51525;SDS011;37611;51.794;21.590;2024-03-08T13:17:48;19.00;;;16.00;;
51525;SDS011;37611;51.794;21.590;2024-03-08T13:21:51;35.40;;;26.90;;
51525;SDS011;37611;51.794;21.590;2024-03-08T13:25:53;29.80;;;24.50;;
51525;SDS011;37611;51.794;21.590;2024-03-08T13:30:01;29.50;;;22.80;;
51525;SDS011;37611;51.794;21.590;2024-03-08T13:34:05;28.60;;;18.80;;
51525;SDS011;37611;51.794;21.590;2024-03-08T13:38:16;22.70;;;16.20;;
51525;SDS011;37611;51.794;21.590;2024-03-08T13:42:21;17.40;;;14.20;;
51525;SDS011;37611;51.794;21.590;2024-03-08T13:46:26;19.50;;;13.80;;
51525;SDS011;37611;51.794;21.590;2024-03-08T13:50:31;16.80;;;13.60;;
51525;SDS011;37611;51.794;21.590;2024-03-08T13:54:42;17.20;;;14.30;;
51525;SDS011;37611;51.794;21.590;2024-03-08T13:58:50;17.60;;;13.70;;
51525;SDS011;37611;51.794;21.590;2024-03-08T14:02:55;19.70;;;14.40;;
51525;SDS011;37611;51.794;21.590;2024-03-08T14:07:00;18.90;;;13.90;;
51525;SDS011;37611;51.794;21.590;2024-03-08T14:11:05;19.80;;;13.50;;
51525;SDS011;37611;51.794;21.590;2024-03-08T14:15:17;21.70;;;15.40;;
51525;SDS011;37611;51.794;21.590;2024-03-08T14:19:19;18.50;;;14.90;;
51525;SDS011;37611;51.794;21.590;2024-03-08T14:23:22;21.40;;;16.20;;
51525;SDS011;37611;51.794;21.590;2024-03-08T14:27:23;21.00;;;15.70;;
51525;SDS011;37611;51.794;21.590;2024-03-08T14:31:25;21.10;;;17.10;;
51525;SDS011;37611;51.794;21.590;2024-03-08T14:35:27;19.40;;;15.60;;
51525;SDS011;37611;51.794;21.590;2024-03-08T14:39:31;21.20;;;17.20;;
51525;SDS011;37611;51.794;21.590;2024-03-08T14:43:34;21.90;;;16.10;;
51525;SDS011;37611;51.794;21.590;2024-03-08T14:47:36;22.20;;;16.10;;
51525;SDS011;37611;51.794;21.590;2024-03-08T14:51:39;19.40;;;14.20;;
51525;SDS011;37611;51.794;21.590;2024-03-08T14:55:42;21.90;;;15.00;;
51525;SDS011;37611;51.794;21.590;2024-03-08T14:59:44;18.50;;;13.70;;
51525;SDS011;37611;51.794;21.590;2024-03-08T15:03:46;18.80;;;14.70;;
51525;SDS011;37611;51.794;21.590;2024-03-08T15:07:48;25.60;;;16.80;;
51525;SDS011;37611;51.794;21.590;2024-03-08T15:11:51;23.20;;;15.70;;
51525;SDS011;37611;51.794;21.590;2024-03-08T15:15:54;23.80;;;16.90;;
51525;SDS011;37611;51.794;21.590;2024-03-08T15:19:58;19.20;;;13.70;;
51525;SDS011;37611;51.794;21.590;2024-03-08T15:24:00;18.30;;;13.40;;
51525;SDS011;37611;51.794;21.590;2024-03-08T15:28:04;19.30;;;13.30;;
51525;SDS011;37611;51.794;21.590;2024-03-08T15:32:14;46.40;;;25.00;;
51525;SDS011;37611;51.794;21.590;2024-03-08T15:36:21;52.00;;;27.20;;
51525;SDS011;37611;51.794;21.590;2024-03-08T15:40:24;40.70;;;25.50;;
51525;SDS011;37611;51.794;21.590;2024-03-08T15:44:26;79.90;;;47.30;;
51525;SDS011;37611;51.794;21.590;2024-03-08T15:48:33;20.80;;;15.70;;
51525;SDS011;37611;51.794;21.590;2024-03-08T15:52:38;22.30;;;15.00;;
51525;SDS011;37611;51.794;21.590;2024-03-08T15:56:43;18.20;;;14.30;;
51525;SDS011;37611;51.794;21.590;2024-03-08T16:00:46;28.20;;;17.50;;
51525;SDS011;37611;51.794;21.590;2024-03-08T16:04:48;66.60;;;34.50;;
51525;SDS011;37611;51.794;21.590;2024-03-08T16:08:50;106.90;;;58.10;;
51525;SDS011;37611;51.794;21.590;2024-03-08T16:12:52;110.10;;;36.50;;
51525;SDS011;37611;51.794;21.590;2024-03-08T16:16:55;98.20;;;34.90;;
51525;SDS011;37611;51.794;21.590;2024-03-08T16:20:57;113.30;;;37.60;;
51525;SDS011;37611;51.794;21.590;2024-03-08T16:24:59;104.00;;;39.10;;
51525;SDS011;37611;51.794;21.590;2024-03-08T16:29:02;90.40;;;43.00;;
51525;SDS011;37611;51.794;21.590;2024-03-08T16:33:05;120.10;;;53.90;;
51525;SDS011;37611;51.794;21.590;2024-03-08T16:37:06;107.20;;;58.40;;
51525;SDS011;37611;51.794;21.590;2024-03-08T16:41:08;97.00;;;53.80;;
51525;SDS011;37611;51.794;21.590;2024-03-08T16:45:11;108.60;;;67.30;;
51525;SDS011;37611;51.794;21.590;2024-03-08T16:49:14;116.10;;;66.30;;
51525;SDS011;37611;51.794;21.590;2024-03-08T16:53:16;108.60;;;55.30;;
51525;SDS011;37611;51.794;21.590;2024-03-08T16:57:19;97.00;;;47.40;;
51525;SDS011;37611;51.794;21.590;2024-03-08T17:01:21;131.40;;;66.40;;
51525;SDS011;37611;51.794;21.590;2024-03-08T17:05:24;198.20;;;115.50;;
51525;SDS011;37611;51.794;21.590;2024-03-08T17:09:29;236.80;;;153.40;;
51525;SDS011;37611;51.794;21.590;2024-03-08T17:13:31;484.90;;;274.50;;
51525;SDS011;37611;51.794;21.590;2024-03-08T17:17:33;560.40;;;318.50;;
51525;SDS011;37611;51.794;21.590;2024-03-08T17:21:35;491.30;;;302.30;;
51525;SDS011;37611;51.794;21.590;2024-03-08T17:25:37;425.40;;;251.00;;
51525;SDS011;37611;51.794;21.590;2024-03-08T17:29:41;427.50;;;264.60;;
51525;SDS011;37611;51.794;21.590;2024-03-08T17:33:43;386.40;;;245.60;;
51525;SDS011;37611;51.794;21.590;2024-03-08T17:37:45;352.90;;;214.40;;
51525;SDS011;37611;51.794;21.590;2024-03-08T17:41:57;401.00;;;238.00;;
51525;SDS011;37611;51.794;21.590;2024-03-08T17:46:03;601.40;;;347.00;;
51525;SDS011;37611;51.794;21.590;2024-03-08T17:50:06;537.80;;;313.50;;
51525;SDS011;37611;51.794;21.590;2024-03-08T17:54:11;466.70;;;266.40;;
51525;SDS011;37611;51.794;21.590;2024-03-08T17:58:15;371.00;;;198.00;;
51525;SDS011;37611;51.794;21.590;2024-03-08T18:02:17;382.40;;;201.20;;
51525;SDS011;37611;51.794;21.590;2024-03-08T18:06:20;426.40;;;230.80;;
51525;SDS011;37611;51.794;21.590;2024-03-08T18:10:25;497.40;;;300.40;;
51525;SDS011;37611;51.794;21.590;2024-03-08T18:14:28;538.60;;;317.10;;
51525;SDS011;37611;51.794;21.590;2024-03-08T18:18:30;453.40;;;271.70;;
51525;SDS011;37611;51.794;21.590;2024-03-08T18:22:33;657.30;;;361.00;;
51525;SDS011;37611;51.794;21.590;2024-03-08T18:26:34;696.80;;;390.60;;
51525;SDS011;37611;51.794;21.590;2024-03-08T18:30:37;868.80;;;467.50;;
51525;SDS011;37611;51.794;21.590;2024-03-08T18:34:40;761.30;;;438.30;;
51525;SDS011;37611;51.794;21.590;2024-03-08T18:38:45;960.20;;;482.20;;
51525;SDS011;37611;51.794;21.590;2024-03-08T18:42:46;993.10;;;495.00;;
51525;SDS011;37611;51.794;21.590;2024-03-08T18:46:48;706.30;;;382.70;;
51525;SDS011;37611;51.794;21.590;2024-03-08T18:50:52;730.20;;;371.60;;
51525;SDS011;37611;51.794;21.590;2024-03-08T18:54:53;648.20;;;349.80;;
51525;SDS011;37611;51.794;21.590;2024-03-08T18:58:55;774.50;;;398.30;;
51525;SDS011;37611;51.794;21.590;2024-03-08T19:02:58;610.20;;;327.20;;
51525;SDS011;37611;51.794;21.590;2024-03-08T19:07:01;641.80;;;337.10;;
51525;SDS011;37611;51.794;21.590;2024-03-08T19:11:04;646.70;;;360.90;;
51525;SDS011;37611;51.794;21.590;2024-03-08T19:15:06;708.40;;;403.20;;
51525;SDS011;37611;51.794;21.590;2024-03-08T19:19:10;540.90;;;338.20;;
51525;SDS011;37611;51.794;21.590;2024-03-08T19:23:12;359.90;;;234.10;;
51525;SDS011;37611;51.794;21.590;2024-03-08T19:27:14;372.90;;;220.50;;
51525;SDS011;37611;51.794;21.590;2024-03-08T19:31:17;443.80;;;244.00;;
51525;SDS011;37611;51.794;21.590;2024-03-08T19:35:20;433.20;;;240.00;;
51525;SDS011;37611;51.794;21.590;2024-03-08T19:39:23;475.80;;;258.10;;
51525;SDS011;37611;51.794;21.590;2024-03-08T19:43:26;442.50;;;241.50;;
51525;SDS011;37611;51.794;21.590;2024-03-08T19:47:28;358.80;;;196.40;;
51525;SDS011;37611;51.794;21.590;2024-03-08T19:51:30;291.60;;;159.10;;
51525;SDS011;37611;51.794;21.590;2024-03-08T19:55:33;333.30;;;183.70;;
51525;SDS011;37611;51.794;21.590;2024-03-08T19:59:36;356.20;;;192.70;;
51525;SDS011;37611;51.794;21.590;2024-03-08T20:03:42;338.40;;;165.10;;
51525;SDS011;37611;51.794;21.590;2024-03-08T20:07:46;360.30;;;179.60;;
51525;SDS011;37611;51.794;21.590;2024-03-08T20:11:48;295.40;;;159.00;;
51525;SDS011;37611;51.794;21.590;2024-03-08T20:15:50;287.50;;;149.20;;
51525;SDS011;37611;51.794;21.590;2024-03-08T20:19:55;392.30;;;213.50;;
51525;SDS011;37611;51.794;21.590;2024-03-08T20:23:57;415.00;;;224.10;;
51525;SDS011;37611;51.794;21.590;2024-03-08T20:27:59;340.50;;;195.20;;
51525;SDS011;37611;51.794;21.590;2024-03-08T20:32:02;350.30;;;181.50;;
51525;SDS011;37611;51.794;21.590;2024-03-08T20:36:05;342.00;;;184.50;;
51525;SDS011;37611;51.794;21.590;2024-03-08T20:40:10;341.70;;;195.20;;
51525;SDS011;37611;51.794;21.590;2024-03-08T20:44:12;367.90;;;199.00;;
51525;SDS011;37611;51.794;21.590;2024-03-08T20:48:17;457.50;;;253.80;;
51525;SDS011;37611;51.794;21.590;2024-03-08T20:52:21;578.60;;;321.40;;
51525;SDS011;37611;51.794;21.590;2024-03-08T20:56:23;529.90;;;308.40;;
51525;SDS011;37611;51.794;21.590;2024-03-08T21:00:26;489.10;;;240.80;;
51525;SDS011;37611;51.794;21.590;2024-03-08T21:04:40;316.10;;;165.50;;
51525;SDS011;37611;51.794;21.590;2024-03-08T21:08:43;289.00;;;159.40;;
51525;SDS011;37611;51.794;21.590;2024-03-08T21:12:45;236.70;;;137.10;;
51525;SDS011;37611;51.794;21.590;2024-03-08T21:16:53;241.00;;;137.00;;
51525;SDS011;37611;51.794;21.590;2024-03-08T21:20:55;252.30;;;135.50;;
51525;SDS011;37611;51.794;21.590;2024-03-08T21:24:57;221.20;;;117.70;;
51525;SDS011;37611;51.794;21.590;2024-03-08T21:28:59;310.40;;;151.10;;
51525;SDS011;37611;51.794;21.590;2024-03-08T21:33:00;386.20;;;193.50;;
51525;SDS011;37611;51.794;21.590;2024-03-08T21:37:05;281.50;;;148.50;;
51525;SDS011;37611;51.794;21.590;2024-03-08T21:41:08;266.50;;;145.10;;
51525;SDS011;37611;51.794;21.590;2024-03-08T21:45:13;238.60;;;129.10;;
51525;SDS011;37611;51.794;21.590;2024-03-08T21:49:19;243.40;;;136.40;;
51525;SDS011;37611;51.794;21.590;2024-03-08T21:53:20;271.30;;;152.90;;
51525;SDS011;37611;51.794;21.590;2024-03-08T21:57:23;263.60;;;145.30;;
51525;SDS011;37611;51.794;21.590;2024-03-08T22:01:25;255.00;;;141.30;;
51525;SDS011;37611;51.794;21.590;2024-03-08T22:05:27;262.30;;;143.10;;
51525;SDS011;37611;51.794;21.590;2024-03-08T22:09:31;219.80;;;115.10;;
51525;SDS011;37611;51.794;21.590;2024-03-08T22:13:33;205.50;;;109.70;;
51525;SDS011;37611;51.794;21.590;2024-03-08T22:17:36;207.80;;;117.30;;
51525;SDS011;37611;51.794;21.590;2024-03-08T22:21:38;215.10;;;119.20;;
51525;SDS011;37611;51.794;21.590;2024-03-08T22:25:43;198.20;;;111.00;;
51525;SDS011;37611;51.794;21.590;2024-03-08T22:29:45;220.40;;;119.60;;
51525;SDS011;37611;51.794;21.590;2024-03-08T22:33:48;194.10;;;104.60;;
51525;SDS011;37611;51.794;21.590;2024-03-08T22:37:50;183.90;;;103.10;;
51525;SDS011;37611;51.794;21.590;2024-03-08T22:41:55;192.30;;;107.10;;
51525;SDS011;37611;51.794;21.590;2024-03-08T22:45:57;182.20;;;108.50;;
51525;SDS011;37611;51.794;21.590;2024-03-08T22:49:59;188.90;;;114.00;;
51525;SDS011;37611;51.794;21.590;2024-03-08T22:54:01;156.30;;;90.80;;
51525;SDS011;37611;51.794;21.590;2024-03-08T22:58:03;152.80;;;89.90;;
51525;SDS011;37611;51.794;21.590;2024-03-08T23:02:05;160.00;;;96.80;;
51525;SDS011;37611;51.794;21.590;2024-03-08T23:06:10;148.70;;;85.80;;
51525;SDS011;37611;51.794;21.590;2024-03-08T23:10:13;141.20;;;82.60;;
51525;SDS011;37611;51.794;21.590;2024-03-08T23:14:17;148.00;;;82.70;;
51525;SDS011;37611;51.794;21.590;2024-03-08T23:18:19;139.40;;;78.40;;